Flight Track Log - Related Links

Times and Time Zones

All times are in EDT time to prevent confusion due to time zone crossing. See the TRS534 flight status page for this flight to view local times or setup timezone preferences in your user account.

Time Position Orientation Groundspeed Altitude Reporting Facility
EDT Latitude Longitude Course Direction KTS MPH feet Rate Location/Type
Fri 10:43:53 AM 33.6167 -84.4833 239° Southwest 177 204 2,100  Level Atlanta TRACON
Fri 10:44:53 AM 33.5833 -84.5500 215° Southwest 272 313 4,300 2,807 Climbing Atlanta TRACON
Fri 10:45:42 AM 33.5425 -84.5847 155° Southeast 315 362 7,200 3,176 Climbing Atlanta Center
Fri 10:46:52 AM 33.4614 -84.5394 93° East 309 356 10,600 2,862 Climbing Atlanta Center
Fri 10:47:52 AM 33.4556 -84.4197 88° East 368 423 13,400 2,450 Climbing Atlanta Center
Fri 10:48:52 AM 33.4600 -84.2953 51° Northeast 389 448 15,500 2,500 Climbing Atlanta Center
Fri 10:49:52 AM 33.5250 -84.1983 44° Northeast 363 418 18,400 2,950 Climbing Atlanta Center
Fri 10:50:52 AM 33.6022 -84.1086 46° Northeast 363 418 21,400 2,300 Climbing Atlanta Center
Fri 10:51:52 AM 33.6814 -84.0114 66° East 382 440 23,000 1,450 Climbing Atlanta Center
Fri 10:52:52 AM 33.7294 -83.8839 68° East 399 459 24,300 1,636 Climbing Atlanta Center
Fri 10:53:53 AM 33.7689 -83.7664 68° East 417 480 26,300 1,950 Climbing Atlanta Center
Fri 10:54:52 AM 33.8144 -83.6289 57° Northeast 430 495 28,200 1,750 Climbing Atlanta Center
Fri 10:55:53 AM 33.8828 -83.5033 51° Northeast 440 506 29,800 1,488 Climbing Atlanta Center
Fri 10:56:53 AM 33.9617 -83.3850 52° Northeast 445 512 31,200 1,513 Climbing Atlanta Center
Fri 10:57:52 AM 34.0403 -83.2642 59° Northeast 456 525 32,800 1,664 Climbing Atlanta Center
Fri 10:58:52 AM 34.1061 -83.1331 58° Northeast 456 525 34,500 1,400 Climbing Atlanta Center
Fri 10:59:52 AM 34.1739 -83.0019 58° Northeast 461 531 35,600 1,100 Climbing Atlanta Center
Fri 11:00:52 AM 34.2417 -82.8703 58° Northeast 451 519 36,700 1,300 Climbing Atlanta Center
Fri 11:01:52 AM 34.3153 -82.7283 59° Northeast 451 519 38,200 1,150 Climbing Atlanta Center
Fri 11:02:52 AM 34.3786 -82.5992 59° Northeast 451 519 39,000 400 Climbing Atlanta Center
Fri 11:03:52 AM 34.4436 -82.4694 59° Northeast 451 519 39,000  Level Atlanta Center
Fri 11:04:52 AM 34.5067 -82.3397 58° Northeast 451 519 39,000  Level Atlanta Center
Fri 11:05:52 AM 34.5736 -82.2072 60° Northeast 451 519 39,000  Level Atlanta Center
Fri 11:06:52 AM 34.6364 -82.0772 59° Northeast 451 519 39,000  Level Atlanta Center
Fri 11:07:53 AM 34.7011 -81.9469 57° Northeast 451 519 39,000  Level Atlanta Center
Fri 11:08:53 AM 34.7656 -81.8239 59° Northeast 437 503 39,000  Level Atlanta Center
Fri 11:09:52 AM 34.8300 -81.6906 59° Northeast 444 511 39,000  Level Atlanta Center
Fri 11:10:52 AM 34.8861 -81.5750 61° Northeast 452 520 39,000  Level Atlanta Center
Fri 11:11:52 AM 34.9500 -81.4364 60° Northeast 452 520 39,000  Level Atlanta Center
Fri 11:12:52 AM 35.0119 -81.3050 59° Northeast 452 520 39,000  Level Atlanta Center
Fri 11:13:52 AM 35.0778 -81.1733 60° Northeast 452 520 39,000  Level Atlanta Center
Fri 11:14:52 AM 35.1431 -81.0339 60° Northeast 452 520 39,000  Level Atlanta Center
Fri 11:15:52 AM 35.2086 -80.8969 60° Northeast 452 520 39,000  Level Atlanta Center
Fri 11:16:52 AM 35.2719 -80.7622 59° Northeast 457 526 39,000  Level Atlanta Center
Fri 11:17:52 AM 35.3392 -80.6272 61° Northeast 457 526 39,000  Level Atlanta Center
Fri 11:18:52 AM 35.4000 -80.4922 60° Northeast 451 519 39,000  Level Atlanta Center
Fri 11:20:58 AM 35.5397 -80.1944 59° Northeast 453 521 39,000  Level Washington Center
Fri 11:21:59 AM 35.5986 -80.0725 60° Northeast 453 521 39,000  Level Washington Center
Fri 11:22:57 AM 35.6597 -79.9406 60° Northeast 448 516 39,000  Level Washington Center
Fri 11:23:58 AM 35.7250 -79.8033 61° Northeast 454 522 39,000  Level Washington Center
Fri 11:24:58 AM 35.7953 -79.6483 54° Northeast 463 533 39,000 -99 Level Washington Center
Fri 11:25:59 AM 35.8636 -79.5339 52° Northeast 463 533 38,800 -496 Descending Washington Center
Fri 11:26:59 AM 35.9472 -79.3997 52° Northeast 455 524 38,000 -407 Descending Washington Center
Fri 11:27:57 AM 36.0264 -79.2725 51° Northeast 455 524 38,000  Level Washington Center
Fri 11:28:57 AM 36.1053 -79.1500 53° Northeast 455 524 38,000  Level Washington Center
Fri 11:29:58 AM 36.1819 -79.0250 52° Northeast 449 517 38,000  Level Washington Center
Fri 11:30:59 AM 36.2561 -78.9069 53° Northeast 449 517 38,000  Level Washington Center
Fri 11:31:59 AM 36.3328 -78.7814 52° Northeast 449 517 38,000  Level Washington Center
Fri 11:32:59 AM 36.3981 -78.6758 53° Northeast 444 511 38,000  Level Washington Center
Fri 11:33:57 AM 36.4742 -78.5494 49° Northeast 450 518 38,000  Level Washington Center
Fri 11:34:58 AM 36.5564 -78.4336 42° Northeast 444 511 38,000  Level Washington Center
Fri 11:35:58 AM 36.6483 -78.3308 44° Northeast 431 496 38,000  Level Washington Center
Fri 11:36:59 AM 36.7428 -78.2175 41° Northeast 426 490 38,000  Level Washington Center
Fri 11:37:57 AM 36.8367 -78.1169 45° Northeast 431 496 38,000  Level Washington Center
Fri 11:38:59 AM 36.9225 -78.0106 43° Northeast 431 496 38,000  Level Washington Center
Fri 11:39:59 AM 37.0142 -77.9042 41° Northeast 431 496 38,000  Level Washington Center
Fri 11:40:57 AM 37.1058 -77.8028 43° Northeast 431 496 38,000  Level Washington Center
Fri 11:41:58 AM 37.1975 -77.6961 42° Northeast 436 502 38,000  Level Washington Center
Fri 11:42:57 AM 37.2889 -77.5914 43° Northeast 436 502 38,000  Level Washington Center
Fri 11:43:57 AM 37.3783 -77.4867 42° Northeast 436 502 38,000  Level Washington Center
Fri 11:44:58 AM 37.4675 -77.3842 44° Northeast 436 502 38,000  Level Washington Center
Fri 11:45:58 AM 37.5567 -77.2764 43° Northeast 436 502 38,000  Level Washington Center
Fri 11:46:59 AM 37.6456 -77.1708 43° Northeast 436 502 38,000  Level Washington Center
Fri 11:47:59 AM 37.7344 -77.0675 44° Northeast 431 496 38,000  Level Washington Center
Fri 11:48:59 AM 37.8214 -76.9614 43° Northeast 431 496 38,000  Level Washington Center
Fri 11:49:57 AM 37.9081 -76.8578 44° Northeast 431 496 38,000 -151 Level Washington Center
Fri 11:50:58 AM 37.9944 -76.7536 43° Northeast 431 496 37,700 -645 Descending Washington Center
Fri 11:51:58 AM 38.0831 -76.6469 43° Northeast 431 496 36,700 -950 Descending Washington Center
Fri 11:52:58 AM 38.1717 -76.5400 43° Northeast 436 502 35,800 -942 Descending Washington Center
Fri 11:53:59 AM 38.2661 -76.4275 38° Northeast 441 507 34,800 -893 Descending Washington Center
Fri 11:54:59 AM 38.3544 -76.3383 36° Northeast 447 514 34,000 -915 Descending Washington Center
Fri 11:55:57 AM 38.4592 -76.2414 36° Northeast 452 520 33,000 -1,017 Descending Washington Center
Fri 11:56:57 AM 38.5764 -76.1308 34° Northeast 458 527 32,000 -942 Descending Washington Center
Fri 11:57:58 AM 38.6706 -76.0489 36° Northeast 458 527 31,100 -934 Descending Washington Center
Fri 11:58:59 AM 38.7753 -75.9511 36° Northeast 458 527 30,100 -942 Descending Washington Center
Fri 11:59:59 AM 38.8817 -75.8531 36° Northeast 458 527 29,200 -966 Descending Washington Center
Fri 12:00:57 PM 38.9883 -75.7519 36° Northeast 463 533 28,200 -1,017 Descending Washington Center
Fri 12:01:57 PM 39.0947 -75.6506 37° Northeast 463 533 27,200 -992 Descending Washington Center
Fri 12:02:58 PM 39.1989 -75.5486 35° Northeast 468 539 26,200 -992 Descending Washington Center
Fri 12:03:58 PM 39.3050 -75.4522 34° Northeast 468 539 25,200 -1,050 Descending Washington Center
Fri 12:04:58 PM 39.4092 -75.3606 35° Northeast 463 533 24,100 -1,050 Descending Washington Center
Fri 12:05:58 PM 39.5111 -75.2686 35° Northeast 457 526 23,100 -1,686 Descending Washington Center
Fri 12:06:59 PM 39.6108 -75.1767 35° Northeast 444 511 20,700 -2,579 Descending Washington Center
Fri 12:07:59 PM 39.7144 -75.0817 33° Northeast 429 494 17,900 -2,593 Descending Washington Center
Fri 12:08:57 PM 39.7975 -75.0108 41° Northeast 408 470 15,600 -1,839 Descending Washington Center
Fri 12:11:18 PM 39.9833 -74.8000 44° Northeast 344 396 11,800 -1,433 Descending New York TRACON
Fri 12:12:18 PM 40.0500 -74.7167 52° Northeast 318 366 10,800 -1,000 Descending New York TRACON
Fri 12:13:18 PM 40.1000 -74.6333 44° Northeast 299 344 9,800 -1,300 Descending New York TRACON
Fri 12:14:18 PM 40.1667 -74.5500 46° Northeast 300 345 8,200 -850 Descending New York TRACON
Fri 12:15:18 PM 40.2167 -74.4833 44° Northeast 297 342 8,100 -50 Descending New York TRACON
Fri 12:16:18 PM 40.2833 -74.4000 52° Northeast 299 344 8,100 -500 Level New York TRACON
Fri 12:17:18 PM 40.3333 -74.3167 37° Northeast 299 344 7,100 -500 Descending New York TRACON
Fri 12:18:18 PM 40.4000 -74.2500 45° Northeast 290 334 7,100  Level New York TRACON
Fri 12:19:18 PM 40.4500 -74.1833 37° Northeast 229 264 7,100 -300 Level New York TRACON
Fri 12:20:18 PM 40.5000 -74.1333 27° Northeast 211 243 6,500 -650 Descending New York TRACON
Fri 12:21:18 PM 40.5500 -74.1000 49° Northeast 207 238 5,800 -700 Descending New York TRACON
Fri 12:22:18 PM 40.5833 -74.0500 27° Northeast 204 235 5,100 -700 Descending New York TRACON
Fri 12:23:18 PM 40.6333 -74.0167 37° Northeast 197 227 4,400 -550 Descending New York TRACON
Fri 12:24:18 PM 40.6833 -73.9667 66° East 193 222 4,000 -209 Descending New York TRACON
Fri 12:25:13 PM 40.7000 -73.9167 57° Northeast 205 236 4,000  Level New York TRACON
Fri 12:26:13 PM 40.7333 -73.8500 57° Northeast 207 238 4,000  Level New York TRACON
Fri 12:27:18 PM 40.7667 -73.7833 57° Northeast 209 241 4,000  Level New York TRACON
Fri 12:28:18 PM 40.8000 -73.7167 37° Northeast 200 230 4,000  Level New York TRACON
Fri 12:29:13 PM 40.8333 -73.6833 37° Northeast 196 226 4,000  Level New York TRACON

Login

Don't have an account? Register now (free) for customized features, flight alerts, and more!